Hawkesbury, Canada
Current Conditions -  °F | °C
As of 10:00 PM on Friday 31 Oct 2014 (Local Time) from CYMX Reporting Station
Overcast Overcast  
Wind Chill:   Ceiling: 9300
Heat Index:   Visibility: 25mi
Dew Point: -4°   Wind: 3mph
Humidity: 60%   Direction: 30°NNE
Pressure: 30.13"   Gusts: NA
Location:  45.61°N, 74.61°W
Report Text: CYMX 010200Z 03003KT 350V090 25SM OVC093 03/M04 A3013 RMK AS8 SLP206
Loading
Personal Weather Stations






























Interactive Weather Map
Tropical Storm Tracking
New forecast layout! Learn more

10-Day Weather Forecast

Advertisements
Track Severe Weather on mobile